This is the latest recevied weather packets stored in our database for station/object WP4NYS-13. If no packets are shown the sender has not sent any weather packets the latest 10 day(s).
| Time | Temp. | Humidity | Pressure | Rain* | Wind** | Luminosity | Snow |
|---|---|---|---|---|---|---|---|
| 1777321652 | 25.56° C | 60% | 1019.3 hPa | 0 mm | - | - | - |
| 1777321348 | 26.11° C | 59% | 1019.2 hPa | 0 mm | - | - | - |
| 1777321045 | 26.11° C | 59% | 1019.1 hPa | 0 mm | - | - | - |
| 1777320743 | 26.67° C | 58% | 1019 hPa | 0 mm | - | - | - |
| 1777320440 | 26.11° C | 59% | 1019.4 hPa | 0 mm | - | - | - |
| 1777320137 | 26.67° C | 57% | 1019.3 hPa | 0 mm | - | - | - |
| 1777319834 | 25.56° C | 60% | 1019.3 hPa | 0 mm | - | - | - |
| 1777319530 | 25.56° C | 60% | 1019.2 hPa | 0 mm | - | - | - |
| 1777319228 | 25.56° C | 60% | 1019.1 hPa | 0 mm | - | - | - |
| 1777318924 | 26.11° C | 60% | 1019.1 hPa | 0 mm | - | - | - |
| 1777318622 | 26.11° C | 59% | 1019.3 hPa | 0 mm | - | - | - |
| 1777318317 | 26.67° C | 59% | 1019.4 hPa | 0 mm | - | - | - |
| 1777318014 | 25.56° C | 61% | 1019.5 hPa | 0 mm | - | - | - |
| 1777317711 | 25° C | 62% | 1019.3 hPa | 0 mm | - | - | - |
| 1777317409 | 25° C | 63% | 1019.4 hPa | 0 mm | - | - | - |
| 1777317104 | 25° C | 63% | 1019.5 hPa | 0 mm | - | - | - |
| 1777316802 | 25.56° C | 62% | 1019.6 hPa | 0 mm | - | - | - |
| 1777316498 | 25° C | 63% | 1019.5 hPa | 0 mm | - | - | - |
| 1777316195 | 25° C | 64% | 1019.4 hPa | 0 mm | - | - | - |
| 1777315893 | 25° C | 63% | 1019.5 hPa | 0 mm | - | - | - |
| 1777315591 | 25.56° C | 63% | 1019.4 hPa | 0 mm | - | - | - |
| 1777315289 | 25.56° C | 63% | 1019.5 hPa | 0 mm | - | - | - |
| 1777314986 | 25.56° C | 62% | 1019.4 hPa | 0 mm | - | - | - |
| 1777314681 | 25.56° C | 61% | 1019.4 hPa | 0 mm | - | - | - |
| 1777314378 | 25.56° C | 63% | 1019.2 hPa | 0 mm | - | - | - |
* Rain latest hour (hover to see other rain measurements)
** Current wind speed in m/s (hover to see current wind gust speed)